Aktualne dane pomiarowe

Uwaga, wersja testowa! Automatyczne pobieranie danych za pomocą narzędzi lub skryptów to umożliwiających jest zabronione.

Dane meteo z obszaru Polski uzyskane na podstawie depesz SYNOP pobieranych co godzinę z NWS. Najedź myszką na symbol przedstawiony w tabeli, aby uzyskać informacje co do jego znaczenia. Prosimy pamiętać, że to testowa wersja strony, która jeszcze nie jest ukończona. Stworzono również jest krótki FAQ dotyczący korzystania z tej podstrony Anomalie temperatury w chwili obecnej odniesione są do okresu referencyjnego 1951-2016. Okres ten będzie później zmieniony na 1981-2010. Kliknij ikonę aby pobrać plik CSV. Kliknij ikonę aby wygenerować mapę synoptyczną dla danego terminu.

Wybierz Datę:    

        

Śnieżka (12510)

Dane terminowe dla wybranej stacji. Kliknij datę, aby otrzymać dane z tego terminu dla wszystkich stacji.

TemperaturaZachmurzenieWiatrCiśnienieOpadyPogoda
 Data t td wb tx tn tg rh  Nt Nl Cl Cm Ch ws wd g1 g2 wx mslp ppp ch 24h 12h t ww ww w1 w2  
2019-07-04 23:00:00 8.5 -0.8 4.0--- 5250.0wx-wxwx14wx---- 839.4 -1.5---------
2019-07-04 22:00:00 8.5 0.2 4.3--- 5650.0wx-wxwx12wx---- 839.9 -1.4---------
2019-07-04 21:00:00 8.6 -0.2 4.2--- 5450.0wx-wxwx11wx---- 840.5 -1.2---------
2019-07-04 20:00:00 8.4 -0.6 4.0--- 5350.0wx-wxwx10wx---- 840.9 -1.2---------
2019-07-04 19:00:00 8.5 -0.8 4.0--- 5250.0wx-wxwx7wx---- 841.3 -1.2---------
2019-07-04 18:00:00 9.0 -1.7 4.0 10.0 3.0- 4750.0wx-wxwx6wx---- 841.7 -1.0- 0.012------
2019-07-04 17:00:00 9.4 -0.5 4.6--- 5050.0wx-wx4wx---- 842.1 -0.9---------
2019-07-04 16:00:00 9.7 0.0 4.9--- 5150.0wxwxwxwx6wx---- 842.5 -0.7---------
2019-07-04 15:00:00 9.1 0.0 4.6--- 5350.0wxwxwxwx6wx---- 842.7 -0.8---------
2019-07-04 14:00:00 8.9 0.3 4.6--- 5550.0wxwxwxwx5wx---- 843.0 -0.5---------
2019-07-04 13:00:00 8.7 0.4 4.5--- 5650.0wxwxwxwx6wx---- 843.2 -0.4---------
2019-07-04 12:00:00 7.9 1.3 4.4--- 6350.0wxwxwxwx5wx---- 843.5 0.1- 0.06------
2019-07-04 11:00:00 7.1 1.2 3.9--- 6650.0wxwxwxwx5wx---- 843.5 0.4---------
2019-07-04 10:00:00 6.3 2.7 4.2--- 7850.0wxwxwxwx3wx---- 843.6 0.7---------
2019-07-04 09:00:00 5.9 2.7 4.0--- 8050.0wxwxwxwx3wx---- 843.4 1.1---------
2019-07-04 08:00:00 4.8 3.1 3.7--- 8940.0wxwxwx2wx---- 843.1 1.2---------
2019-07-04 07:00:00 4.2 2.7 3.2--- 9040.0wxwxwx4wx---- 842.9 1.3---------
2019-07-04 06:00:00 3.2 2.3 2.5 5.7 2.6- 9440.0wxwxwx6wx---- 842.3 0.3- 0.012----- 14.5
2019-07-04 05:00:00 3.0 2.3 2.5--- 9540.0wxwxwxwx7wx---- 841.9 -0.1---------
2019-07-04 04:00:00 2.8 1.9 2.1--- 9440.0wx-wx9wx---- 841.6 -0.3---------
2019-07-04 03:00:00 3.0 1.8 2.2--- 9250.0wx-wx7wx---- 842.0 0.1---------
2019-07-04 02:00:00 3.2 1.4 2.1--- 8850.0wx-9wx---- 842.0 0.2---------
2019-07-04 01:00:00 3.4 1.1 2.0--- 8550.0wx-9wx---- 841.9 -0.1---------
2019-07-04 00:00:00 3.7 0.4 1.8--- 7950.0wx-8wx---- 841.9 0.5- 0.06------
2019-07-03 23:00:00 4.0 0.5 2.0--- 7850.0wx-11wx---- 841.8 -0.2---------
2019-07-03 22:00:00 4.0 0.3 1.9--- 7750.0wx-10wx---- 842.0 -0.2---------
2019-07-03 21:00:00 4.3 0.3 2.1--- 7550.0wx-13wx---- 841.4 -0.8---------
2019-07-03 20:00:00 4.5 0.4 2.2--- 7550.0wx-wx9wx---- 842.0 -0.2---------
2019-07-03 19:00:00 5.1 0.3 2.5--- 7150.0wxwxwxwx7wx---- 842.2 0.2---------
2019-07-03 18:00:00 5.7 0.0 2.7 8.0 2.0- 6750.0wxwxwxwx9wx---- 842.2 0.0- 0.012------
2019-07-03 17:00:00 6.4 0.1 3.1--- 6450.0wxwxwxwx9wx---- 842.2 -0.1---------
2019-07-03 16:00:00 6.5 -0.3 3.0--- 6250.0wxwxwxwx11wx---- 842.0 -0.3---------
2019-07-03 15:00:00 6.9 0.1 3.4--- 6250.0wxwxwxwx8wx---- 842.2 -0.1---------
2019-07-03 14:00:00 6.6 0.3 3.3--- 6450.0wxwxwxwx9wx---- 842.3 -0.2---------
2019-07-03 13:00:00 6.5 0.0 3.1--- 6350.0wxwxwxwx9wx---- 842.3 0.4---------
2019-07-03 12:00:00 6.5 0.6 3.4--- 6650.0wxwxwx8wx---- 842.3 0.5---wx-w1--
2019-07-03 11:00:00 6.2 0.9 3.3--- 6950.0wxwxwx7wx---- 842.5 1.0---------
2019-07-03 10:00:00 4.6 0.7 2.4--- 7650.0wxwxwx8wx---- 841.9 1.0---------
2019-07-03 09:00:00 3.9 0.6 2.0--- 7950.0wxwxwx8wx---- 841.8 1.6---wx-w1--
2019-07-03 08:00:00 3.0 1.5 2.0--- 9050.0wxwxwx9wx---- 841.5 2.3---------
2019-07-03 07:00:00 2.8 1.5 1.9--- 9150.0wxwxwx11wx---- 840.9 2.0---wx---
2019-07-03 06:00:00 2.1 1.8 1.8 8.0 1.5- 980.9wxwxwx12wx---- 840.2 0.7- 0.012wx-- 14.0
2019-07-03 05:00:00 1.9 1.6 1.6--- 980.9wxwxwx16wx---- 839.2 -0.7---wx---
2019-07-03 04:00:00 1.9 1.2 1.4--- 9550.0wxwxwx15wx---- 838.9 -1.3---------
2019-07-03 03:00:00 2.9 0.5 1.4--- 8450.0wx-14wx---- 839.5 -0.7---------
2019-07-03 02:00:00 3.3 0.0 1.4--- 7950.0wx-13wx---- 839.9 -0.5---------
2019-07-03 01:00:00 3.5 -0.3 1.4--- 7650.0wx-14wx---- 840.2 0.2---------
2019-07-03 00:00:00 3.3 0.5 1.6--- 8250.0wx-16wx---- 840.2 -0.2- 0.06------
1.1 ms

 

Print Friendly, PDF & Email